createdAt,value
2018-12-08T00:01:45.821Z,60.85
2018-12-08T00:04:14.914Z,59.69
2018-12-08T00:06:44.046Z,60.02
2018-12-08T00:09:13.260Z,60.58
2018-12-08T00:11:42.569Z,60.33
2018-12-08T00:14:12.010Z,59.30
2018-12-08T00:16:41.133Z,59.88
2018-12-08T00:19:10.342Z,59.99
2018-12-08T00:21:39.441Z,59.67
2018-12-08T00:24:08.625Z,60.34
2018-12-08T00:26:37.891Z,60.89
2018-12-08T00:29:07.040Z,61.18
2018-12-08T00:31:46.959Z,60.91
2018-12-08T00:34:16.084Z,60.95
2018-12-08T00:36:45.344Z,61.13
2018-12-08T00:39:14.442Z,61.57
2018-12-08T00:41:43.635Z,60.71
2018-12-08T00:44:13.061Z,61.80
2018-12-08T00:46:42.281Z,59.80
2018-12-08T00:49:11.447Z,60.30
2018-12-08T00:51:40.515Z,61.38
2018-12-08T00:54:09.955Z,60.91
2018-12-08T00:56:39.111Z,59.91
2018-12-08T00:59:08.250Z,60.37
2018-12-08T01:01:37.719Z,60.26
2018-12-08T01:04:06.750Z,60.62
2018-12-08T01:06:36.335Z,60.90
2018-12-08T01:09:07.484Z,59.98
2018-12-08T01:11:36.848Z,61.79
2018-12-08T01:14:05.978Z,59.39
2018-12-08T01:16:35.090Z,61.34
2018-12-08T01:19:04.213Z,61.25
2018-12-08T01:21:33.248Z,61.00
2018-12-08T01:24:02.404Z,60.35
2018-12-08T01:26:31.583Z,61.14
2018-12-08T01:29:00.586Z,60.57
2018-12-08T01:31:29.960Z,58.52
2018-12-08T01:33:59.032Z,60.00
2018-12-08T01:36:28.106Z,59.71
2018-12-08T01:38:57.453Z,60.15
2018-12-08T01:41:26.658Z,60.88
2018-12-08T01:43:55.753Z,59.70
2018-12-08T01:46:24.855Z,59.31
2018-12-08T01:48:54.042Z,59.79
2018-12-08T01:51:23.225Z,59.67
2018-12-08T01:53:52.437Z,60.56
2018-12-08T01:56:21.623Z,60.20
2018-12-08T01:58:51.431Z,61.38
2018-12-08T02:01:20.545Z,60.48
2018-12-08T02:03:49.742Z,60.17
2018-12-08T02:06:18.959Z,58.93
2018-12-08T02:08:48.113Z,60.60
2018-12-08T02:11:24.715Z,60.52
2018-12-08T02:13:48.284Z,60.52
2018-12-08T02:16:17.355Z,59.61
2018-12-08T02:18:46.471Z,60.72
2018-12-08T02:21:15.487Z,60.17
2018-12-08T02:23:44.516Z,59.80
2018-12-08T02:26:13.738Z,58.27
2018-12-08T02:28:42.986Z,58.93
2018-12-08T02:31:12.070Z,58.84
2018-12-08T02:33:41.359Z,57.91
2018-12-08T02:36:10.515Z,59.05
2018-12-08T02:38:39.527Z,58.09
2018-12-08T02:41:08.731Z,59.71
2018-12-08T02:43:37.953Z,59.74
2018-12-08T02:46:06.959Z,59.46
2018-12-08T02:48:36.051Z,59.85
2018-12-08T02:51:05.253Z,59.19
2018-12-08T02:53:34.384Z,58.66
2018-12-08T02:56:03.625Z,58.32
2018-12-08T02:58:32.804Z,59.29
2018-12-08T03:01:01.946Z,59.12
2018-12-08T03:03:31.077Z,58.83
2018-12-08T03:06:00.207Z,58.31
2018-12-08T03:08:29.391Z,58.81
2018-12-08T03:10:58.559Z,58.72
2018-12-08T03:13:27.799Z,58.71
2018-12-08T03:15:57.025Z,58.91
2018-12-08T03:18:26.159Z,58.64
2018-12-08T03:20:55.255Z,59.30
2018-12-08T03:23:24.389Z,57.90
2018-12-08T03:25:53.611Z,59.17
2018-12-08T03:28:22.775Z,60.10
2018-12-08T03:30:52.012Z,59.04
2018-12-08T03:33:21.211Z,59.32
2018-12-08T03:35:50.379Z,60.51
2018-12-08T03:38:19.523Z,61.73
2018-12-08T03:40:48.663Z,61.65
2018-12-08T03:43:17.758Z,61.07
2018-12-08T03:45:46.792Z,59.67
2018-12-08T03:48:16.159Z,60.54
2018-12-08T03:50:45.784Z,58.77
2018-12-08T03:53:14.901Z,59.21
2018-12-08T03:55:44.993Z,58.68
2018-12-08T03:58:14.410Z,57.19
2018-12-08T04:00:43.412Z,58.54
2018-12-08T04:03:12.702Z,58.46
2018-12-08T04:05:41.741Z,59.24
2018-12-08T04:08:11.164Z,59.53
2018-12-08T04:10:40.197Z,58.58
2018-12-08T04:13:09.286Z,59.01
2018-12-08T04:15:38.356Z,58.24
2018-12-08T04:18:07.374Z,58.61
2018-12-08T04:20:36.870Z,58.87
2018-12-08T04:23:05.964Z,57.88
2018-12-08T04:25:35.070Z,59.05
2018-12-08T04:28:04.115Z,59.06
2018-12-08T04:30:33.315Z,58.11
2018-12-08T04:33:02.365Z,58.61
2018-12-08T04:35:31.550Z,59.40
2018-12-08T04:38:01.042Z,57.64
2018-12-08T04:40:30.141Z,58.21
2018-12-08T04:42:59.255Z,58.39
2018-12-08T04:45:28.851Z,58.80
2018-12-08T04:47:57.973Z,58.84
2018-12-08T04:50:27.582Z,58.10
2018-12-08T04:52:56.662Z,57.43
2018-12-08T04:55:25.914Z,58.18
2018-12-08T04:57:55.078Z,58.54
2018-12-08T05:00:24.188Z,57.88
2018-12-08T05:02:53.412Z,58.01
2018-12-08T05:05:22.649Z,57.99
2018-12-08T05:07:51.762Z,58.81
2018-12-08T05:10:20.930Z,58.93
2018-12-08T05:12:50.152Z,57.92
2018-12-08T05:15:19.138Z,57.67
2018-12-08T05:17:48.230Z,58.21
2018-12-08T05:20:17.348Z,58.11
2018-12-08T05:22:46.478Z,57.95
2018-12-08T05:25:15.535Z,59.26
2018-12-08T05:27:44.597Z,58.22
2018-12-08T05:30:13.657Z,57.56
2018-12-08T05:32:42.654Z,59.21
2018-12-08T05:35:11.700Z,58.30
2018-12-08T05:37:40.796Z,58.38
2018-12-08T05:40:10.282Z,58.14
2018-12-08T05:42:39.861Z,58.56
2018-12-08T05:45:09.421Z,58.76
2018-12-08T05:47:38.416Z,58.47
2018-12-08T05:50:08.745Z,59.04
2018-12-08T05:52:37.922Z,58.27
2018-12-08T05:55:07.111Z,56.33
2018-12-08T05:57:36.138Z,58.31
2018-12-08T06:00:06.793Z,59.15
2018-12-08T06:02:35.961Z,57.32
2018-12-08T06:05:06.005Z,58.95
2018-12-08T06:07:35.125Z,58.50
2018-12-08T06:10:05.086Z,58.07
2018-12-08T06:12:34.625Z,58.59
2018-12-08T06:15:04.047Z,57.70
2018-12-08T06:17:33.146Z,58.12
2018-12-08T06:20:02.233Z,56.76
2018-12-08T06:22:31.594Z,58.13
2018-12-08T06:25:00.698Z,59.45
2018-12-08T06:28:08.583Z,58.24
2018-12-08T06:30:37.886Z,58.98
2018-12-08T06:33:06.976Z,58.65
2018-12-08T06:35:36.599Z,57.94
2018-12-08T06:38:05.906Z,57.62
2018-12-08T06:40:34.992Z,55.56
2018-12-08T06:43:04.198Z,58.52
2018-12-08T06:45:33.380Z,55.69
2018-12-08T06:48:02.438Z,57.25
2018-12-08T06:50:31.507Z,57.31
2018-12-08T06:53:01.064Z,58.18
2018-12-08T06:55:30.138Z,58.15
2018-12-08T06:57:59.264Z,58.42
2018-12-08T07:00:28.172Z,58.64
2018-12-08T07:02:57.343Z,58.20
2018-12-08T07:05:26.361Z,58.00
2018-12-08T07:07:55.431Z,58.13
2018-12-08T07:10:24.543Z,57.78
2018-12-08T07:12:53.662Z,57.79
2018-12-08T07:15:23.918Z,57.17
2018-12-08T07:17:53.264Z,56.83
2018-12-08T07:20:22.450Z,58.29
2018-12-08T07:22:51.648Z,57.56
2018-12-08T07:25:20.736Z,57.82
2018-12-08T07:27:49.768Z,58.06
2018-12-08T07:30:18.762Z,58.30
2018-12-08T07:32:48.247Z,57.80
2018-12-08T07:35:17.560Z,57.30
2018-12-08T07:37:47.376Z,57.02
2018-12-08T07:40:16.573Z,58.17
2018-12-08T07:42:46.053Z,57.60
2018-12-08T07:45:15.295Z,57.71
2018-12-08T07:47:44.789Z,57.69
2018-12-08T07:50:14.379Z,58.19
2018-12-08T07:52:43.470Z,59.11
2018-12-08T07:55:12.985Z,58.75
2018-12-08T07:57:42.059Z,59.08
2018-12-08T08:00:12.625Z,58.58
2018-12-08T08:02:41.859Z,58.15
2018-12-08T08:05:10.856Z,59.24
2018-12-08T08:07:40.087Z,58.95
2018-12-08T08:10:10.714Z,58.79
2018-12-08T08:12:39.841Z,56.64
2018-12-08T08:15:10.261Z,58.68
2018-12-08T08:17:39.675Z,58.37
2018-12-08T08:20:11.414Z,58.08
2018-12-08T08:22:40.473Z,57.85
2018-12-08T08:25:11.302Z,58.70
2018-12-08T08:27:40.425Z,58.42
2018-12-08T08:30:11.515Z,58.90
2018-12-08T08:32:40.644Z,59.16
2018-12-08T08:35:09.973Z,59.18
2018-12-08T08:37:39.173Z,60.64
2018-12-08T08:40:10.867Z,59.28
2018-12-08T08:42:40.159Z,58.22
2018-12-08T08:45:09.549Z,59.55
2018-12-08T08:47:38.801Z,60.90
2018-12-08T08:50:10.687Z,60.64
2018-12-08T08:52:40.324Z,58.96
2018-12-08T08:55:09.183Z,60.79
2018-12-08T08:57:38.080Z,59.21
2018-12-08T09:00:09.203Z,60.00
2018-12-08T09:02:38.077Z,60.24
2018-12-08T09:05:07.649Z,58.65
2018-12-08T09:07:36.521Z,60.21
2018-12-08T09:10:09.359Z,59.54
2018-12-08T09:12:38.664Z,61.31
2018-12-08T09:15:08.627Z,59.28
2018-12-08T09:17:37.503Z,59.06
2018-12-08T09:20:09.354Z,58.83
2018-12-08T09:22:38.356Z,57.89
2018-12-08T09:25:08.896Z,57.43
2018-12-08T09:27:37.774Z,59.05
2018-12-08T09:30:09.601Z,59.49
2018-12-08T09:32:38.455Z,59.65
2018-12-08T09:35:07.724Z,56.82
2018-12-08T09:37:36.608Z,57.10
2018-12-08T09:40:06.727Z,58.02
2018-12-08T09:42:35.707Z,55.34
2018-12-08T09:45:05.103Z,54.07
2018-12-08T09:47:33.953Z,56.56
2018-12-08T09:50:03.256Z,53.13
2018-12-08T09:52:32.116Z,55.17
2018-12-08T09:55:01.001Z,54.32
2018-12-08T09:57:29.885Z,56.31
2018-12-08T09:59:58.778Z,52.67
2018-12-08T10:02:27.685Z,50.04
2018-12-08T10:04:56.560Z,53.91
2018-12-08T10:07:25.395Z,52.32
2018-12-08T10:09:54.241Z,49.65
2018-12-08T10:12:23.131Z,51.20
2018-12-08T10:14:51.992Z,53.23
2018-12-08T10:17:20.850Z,52.64
2018-12-08T10:19:49.922Z,50.59
2018-12-08T10:22:18.804Z,50.61
2018-12-08T10:24:47.658Z,52.09
2018-12-08T10:27:16.496Z,52.44
2018-12-08T10:29:45.338Z,53.89
2018-12-08T10:32:14.637Z,49.57
2018-12-08T10:34:43.477Z,48.00
2018-12-08T10:37:12.335Z,46.36
2018-12-08T10:39:41.651Z,46.95
2018-12-08T10:42:10.537Z,46.95
2018-12-08T10:44:39.460Z,45.78
2018-12-08T10:47:08.631Z,49.72
2018-12-08T10:49:37.524Z,47.90
2018-12-08T10:52:06.379Z,50.24
2018-12-08T10:54:35.215Z,50.15
2018-12-08T10:57:04.507Z,49.47
2018-12-08T10:59:33.443Z,49.87
2018-12-08T11:02:02.310Z,48.81
2018-12-08T11:04:31.153Z,50.69
2018-12-08T11:07:00.048Z,50.01
2018-12-08T11:09:28.928Z,48.54
2018-12-08T11:11:57.797Z,50.56
2018-12-08T11:14:26.695Z,50.41
2018-12-08T11:16:55.543Z,50.07
2018-12-08T11:19:24.839Z,51.36
2018-12-08T11:21:53.941Z,50.95
2018-12-08T11:24:22.798Z,48.85
2018-12-08T11:26:51.692Z,50.23
2018-12-08T11:29:20.574Z,50.14
2018-12-08T11:31:49.796Z,50.17
2018-12-08T11:34:18.695Z,49.58
2018-12-08T11:36:49.620Z,48.13
2018-12-08T11:39:18.619Z,49.11
2018-12-08T11:41:47.926Z,51.03
2018-12-08T11:44:17.335Z,48.44
2018-12-08T11:46:46.726Z,50.13
2018-12-08T11:49:15.623Z,49.93
2018-12-08T11:51:44.895Z,49.81
2018-12-08T11:54:13.775Z,50.07
2018-12-08T11:56:42.614Z,51.74
2018-12-08T11:59:11.494Z,51.33
2018-12-08T12:01:40.354Z,50.90
2018-12-08T12:04:09.241Z,50.12
2018-12-08T12:06:38.129Z,50.36
2018-12-08T12:09:08.296Z,51.23
2018-12-08T12:11:37.228Z,51.13
2018-12-08T12:14:06.104Z,49.71
2018-12-08T12:16:35.057Z,51.09
2018-12-08T12:19:04.315Z,50.28
2018-12-08T12:21:33.161Z,50.18
2018-12-08T12:24:02.062Z,52.55
2018-12-08T12:26:30.936Z,53.09
2018-12-08T12:28:59.812Z,53.86
2018-12-08T12:31:28.688Z,52.98
2018-12-08T12:33:57.568Z,52.36
2018-12-08T12:36:26.418Z,52.18
2018-12-08T12:38:55.282Z,52.34
2018-12-08T12:41:24.194Z,52.70
2018-12-08T12:43:53.047Z,52.28
2018-12-08T12:46:22.605Z,51.88
2018-12-08T12:48:51.744Z,50.93
2018-12-08T12:51:20.675Z,49.99
2018-12-08T12:53:49.550Z,48.78
2018-12-08T12:56:18.481Z,49.39
2018-12-08T12:58:47.607Z,49.34
2018-12-08T13:01:16.535Z,49.19
2018-12-08T13:03:45.440Z,50.15
2018-12-08T13:06:14.628Z,49.72
2018-12-08T13:08:43.802Z,51.78
2018-12-08T13:11:12.767Z,53.06
2018-12-08T13:13:41.679Z,55.18
2018-12-08T13:16:11.416Z,56.12
2018-12-08T13:18:40.255Z,57.56
2018-12-08T13:21:09.123Z,57.53
2018-12-08T13:23:37.978Z,57.70
2018-12-08T13:26:06.892Z,57.52
2018-12-08T13:28:35.854Z,55.43
2018-12-08T13:31:04.756Z,56.19
2018-12-08T13:33:33.614Z,56.00
2018-12-08T13:36:03.154Z,55.92
2018-12-08T13:38:32.454Z,56.54
2018-12-08T13:41:01.557Z,56.88
2018-12-08T13:43:30.674Z,56.65
2018-12-08T13:45:59.539Z,58.76
2018-12-08T13:48:29.783Z,59.22
2018-12-08T13:50:59.147Z,60.77
2018-12-08T13:53:28.016Z,61.75
2018-12-08T13:55:56.858Z,64.09
2018-12-08T13:58:26.833Z,63.55
2018-12-08T14:00:55.877Z,62.50
2018-12-08T14:03:24.749Z,61.64
2018-12-08T14:05:54.050Z,62.19
2018-12-08T14:08:23.293Z,61.70
2018-12-08T14:10:52.250Z,60.71
2018-12-08T14:13:21.136Z,60.70
2018-12-08T14:15:50.027Z,59.24
2018-12-08T14:18:19.143Z,58.65
2018-12-08T14:20:48.426Z,59.77
2018-12-08T14:23:17.358Z,57.75
2018-12-08T14:25:46.207Z,59.02
2018-12-08T14:28:15.715Z,56.68
2018-12-08T14:30:44.596Z,58.24
2018-12-08T14:33:15.309Z,59.31
2018-12-08T14:35:44.503Z,59.45
2018-12-08T14:38:13.849Z,59.70
2018-12-08T14:40:42.740Z,59.59
2018-12-08T14:43:11.624Z,62.04
2018-12-08T14:45:40.519Z,60.54
2018-12-08T14:48:09.424Z,59.66
2018-12-08T14:50:38.285Z,62.80
2018-12-08T14:53:07.182Z,58.94
2018-12-08T14:55:36.074Z,60.71
2018-12-08T14:58:05.171Z,60.14
2018-12-08T15:00:34.115Z,63.11
2018-12-08T15:03:03.376Z,60.27
2018-12-08T15:05:32.267Z,62.81
2018-12-08T15:08:01.148Z,61.32
2018-12-08T15:10:30.066Z,60.30
2018-12-08T15:12:58.939Z,62.97
2018-12-08T15:15:27.836Z,61.11
2018-12-08T15:17:57.114Z,59.55
2018-12-08T15:20:26.118Z,58.46
2018-12-08T15:22:55.001Z,59.34
2018-12-08T15:25:23.998Z,59.36
2018-12-08T15:27:52.846Z,57.68
2018-12-08T15:30:21.772Z,61.31
2018-12-08T15:32:50.679Z,59.66
2018-12-08T15:35:20.018Z,58.07
2018-12-08T15:37:49.533Z,59.18
2018-12-08T15:40:18.387Z,59.71
2018-12-08T15:42:47.502Z,60.51
2018-12-08T15:45:16.906Z,58.21
2018-12-08T15:47:45.776Z,58.74
2018-12-08T15:50:15.355Z,63.98
2018-12-08T15:52:44.636Z,60.26
2018-12-08T15:55:13.770Z,61.26
2018-12-08T15:57:42.663Z,60.49
2018-12-08T16:00:12.601Z,60.47
2018-12-08T16:02:41.887Z,64.75
2018-12-08T16:05:11.185Z,63.47
2018-12-08T16:07:40.525Z,62.14
2018-12-08T16:10:09.849Z,61.92
2018-12-08T16:12:38.790Z,63.25
2018-12-08T16:15:09.392Z,60.03
2018-12-08T16:17:38.262Z,62.84
2018-12-08T16:20:10.405Z,61.84
2018-12-08T16:22:40.042Z,63.42
2018-12-08T16:25:09.445Z,62.11
2018-12-08T16:27:38.353Z,61.93
2018-12-08T16:30:08.899Z,63.27
2018-12-08T16:32:37.801Z,63.40
2018-12-08T16:35:07.349Z,63.54
2018-12-08T16:37:36.439Z,63.08
2018-12-08T16:40:06.383Z,61.48
2018-12-08T16:42:35.399Z,59.29
2018-12-08T16:45:05.405Z,63.25
2018-12-08T16:47:34.678Z,60.32
2018-12-08T16:50:04.091Z,62.80
2018-12-08T16:52:32.959Z,64.00
2018-12-08T16:55:01.846Z,59.26
2018-12-08T16:57:31.141Z,62.47
2018-12-08T17:00:00.064Z,60.53
2018-12-08T17:02:29.343Z,61.23
2018-12-08T17:04:58.224Z,63.50
2018-12-08T17:07:27.075Z,61.30
2018-12-08T17:09:55.964Z,64.74
2018-12-08T17:12:24.841Z,65.17
2018-12-08T17:14:53.695Z,62.78
2018-12-08T17:17:22.704Z,63.30
2018-12-08T17:19:51.579Z,62.79
2018-12-08T17:22:20.922Z,62.58
2018-12-08T17:24:50.251Z,62.11
2018-12-08T17:27:19.109Z,61.14
2018-12-08T17:29:47.971Z,62.70
2018-12-08T17:32:16.892Z,63.75
2018-12-08T17:34:45.722Z,62.45
2018-12-08T17:37:14.674Z,61.54
2018-12-08T17:39:43.569Z,63.36
2018-12-08T17:42:12.517Z,61.67
2018-12-08T17:44:41.428Z,60.24
2018-12-08T17:47:10.721Z,60.73
2018-12-08T17:49:39.552Z,59.49
2018-12-08T17:52:08.418Z,60.26
2018-12-08T17:54:37.258Z,59.60
2018-12-08T17:57:06.613Z,58.42
2018-12-08T17:59:35.728Z,59.60
2018-12-08T18:02:05.677Z,59.98
2018-12-08T18:04:34.836Z,58.62
2018-12-08T18:07:03.706Z,61.47
2018-12-08T18:09:32.531Z,62.74
2018-12-08T18:12:01.839Z,62.08
2018-12-08T18:14:31.118Z,62.22
2018-12-08T18:17:00.012Z,62.93
2018-12-08T18:19:28.894Z,60.70
2018-12-08T18:21:57.838Z,61.93
2018-12-08T18:24:26.914Z,59.14
2018-12-08T18:26:56.192Z,61.64
2018-12-08T18:29:25.055Z,60.89
2018-12-08T18:31:53.919Z,59.85
2018-12-08T18:34:22.759Z,60.82
2018-12-08T18:36:51.876Z,59.84
2018-12-08T18:39:20.760Z,58.92
2018-12-08T18:41:50.050Z,61.03
2018-12-08T18:44:18.902Z,60.72
2018-12-08T18:46:47.728Z,62.07
2018-12-08T18:49:16.619Z,61.49
2018-12-08T18:51:45.826Z,63.14
2018-12-08T18:54:14.768Z,60.02
2018-12-08T18:56:43.677Z,60.37
2018-12-08T18:59:12.551Z,57.56
2018-12-08T19:01:41.952Z,59.22
2018-12-08T19:04:10.781Z,59.30
2018-12-08T19:06:39.650Z,60.25
2018-12-08T19:09:09.283Z,61.69
2018-12-08T19:11:38.231Z,58.97
2018-12-08T19:14:07.479Z,59.10
2018-12-08T19:16:36.364Z,59.01
2018-12-08T19:19:05.235Z,58.69
2018-12-08T19:21:34.124Z,60.37
2018-12-08T19:24:03.447Z,60.22
2018-12-08T19:26:32.315Z,61.47
2018-12-08T19:29:01.566Z,60.54
2018-12-08T19:31:30.839Z,59.80
2018-12-08T19:33:59.668Z,61.61
2018-12-08T19:36:28.525Z,60.23
2018-12-08T19:38:57.791Z,61.55
2018-12-08T19:41:26.676Z,62.17
2018-12-08T19:43:55.527Z,62.40
2018-12-08T19:46:24.456Z,61.64
2018-12-08T19:48:53.324Z,62.08
2018-12-08T19:51:22.183Z,62.29
2018-12-08T19:53:51.066Z,61.79
2018-12-08T19:56:20.059Z,61.64
2018-12-08T19:58:48.962Z,61.14
2018-12-08T20:01:18.011Z,61.08
2018-12-08T20:03:46.894Z,59.86
2018-12-08T20:06:15.827Z,61.41
2018-12-08T20:08:45.426Z,59.17
2018-12-08T20:11:14.333Z,59.34
2018-12-08T20:13:43.420Z,59.29
2018-12-08T20:16:12.761Z,60.34
2018-12-08T20:18:41.612Z,61.34
2018-12-08T20:21:10.470Z,62.21
2018-12-08T20:23:39.351Z,60.59
2018-12-08T20:26:08.722Z,60.54
2018-12-08T20:28:37.580Z,61.04
2018-12-08T20:31:06.421Z,60.18
2018-12-08T20:33:35.265Z,60.61
2018-12-08T20:36:04.115Z,60.01
2018-12-08T20:38:32.947Z,61.82
2018-12-08T20:41:02.197Z,60.69
2018-12-08T20:43:31.319Z,59.73
2018-12-08T20:46:00.196Z,60.54
2018-12-08T20:48:29.083Z,61.37
2018-12-08T20:50:57.943Z,60.38
2018-12-08T20:53:26.797Z,58.94
2018-12-08T20:55:55.688Z,59.27
2018-12-08T20:58:24.537Z,61.63
2018-12-08T21:00:53.783Z,59.57
2018-12-08T21:03:22.642Z,60.30
2018-12-08T21:05:51.500Z,59.78
2018-12-08T21:08:20.360Z,59.53
2018-12-08T21:10:49.250Z,60.34
2018-12-08T21:13:18.140Z,61.50
2018-12-08T21:15:47.416Z,61.60
2018-12-08T21:18:16.305Z,60.59
2018-12-08T21:20:45.127Z,58.78
2018-12-08T21:23:14.423Z,59.71
2018-12-08T21:25:43.279Z,58.87
2018-12-08T21:28:12.151Z,58.54
2018-12-08T21:30:40.991Z,57.88
2018-12-08T21:33:10.047Z,60.52
2018-12-08T21:35:38.874Z,60.24
2018-12-08T21:38:07.734Z,59.91
2018-12-08T21:40:38.243Z,58.70
2018-12-08T21:43:07.110Z,58.28
2018-12-08T21:45:36.287Z,57.90
2018-12-08T21:48:05.252Z,57.30
2018-12-08T21:50:34.551Z,60.18
2018-12-08T21:53:03.469Z,57.89
2018-12-08T21:55:32.974Z,58.91
2018-12-08T21:58:01.831Z,60.04
2018-12-08T22:00:30.803Z,58.88
2018-12-08T22:02:59.671Z,60.41
2018-12-08T22:05:28.594Z,60.74
2018-12-08T22:07:57.528Z,60.35
2018-12-08T22:10:26.414Z,59.33
2018-12-08T22:12:55.347Z,61.27
2018-12-08T22:15:24.210Z,58.96
2018-12-08T22:17:53.147Z,59.10
2018-12-08T22:20:22.271Z,58.61
2018-12-08T22:22:51.190Z,59.13
2018-12-08T22:25:20.068Z,60.59
2018-12-08T22:27:48.971Z,58.20
2018-12-08T22:30:18.033Z,59.45
2018-12-08T22:32:46.893Z,60.60
2018-12-08T22:35:15.750Z,59.40
2018-12-08T22:37:44.653Z,59.27
2018-12-08T22:40:13.942Z,58.31
2018-12-08T22:42:42.942Z,57.80
2018-12-08T22:45:12.123Z,57.40
2018-12-08T22:47:41.135Z,58.80
2018-12-08T22:50:10.364Z,58.02
2018-12-08T22:52:39.211Z,59.70
2018-12-08T22:55:08.471Z,61.85
2018-12-08T22:57:39.402Z,60.18
2018-12-08T23:00:18.715Z,59.71
2018-12-08T23:02:47.622Z,58.81
2018-12-08T23:05:16.483Z,60.22
2018-12-08T23:07:45.352Z,61.25
2018-12-08T23:10:14.647Z,59.75
2018-12-08T23:12:43.486Z,59.02
2018-12-08T23:15:12.807Z,59.96
2018-12-08T23:17:41.707Z,58.47
2018-12-08T23:20:11.137Z,58.21
2018-12-08T23:22:40.011Z,61.94
2018-12-08T23:25:09.278Z,59.49
2018-12-08T23:27:38.171Z,60.51
2018-12-08T23:30:07.883Z,60.81
2018-12-08T23:32:37.145Z,62.46
2018-12-08T23:35:06.442Z,61.85
2018-12-08T23:37:35.331Z,61.85
2018-12-08T23:40:05.130Z,59.55
2018-12-08T23:42:33.983Z,62.05
2018-12-08T23:45:03.069Z,61.06
2018-12-08T23:47:31.930Z,61.61
2018-12-08T23:50:00.798Z,59.87
2018-12-08T23:52:30.098Z,59.57
2018-12-08T23:54:58.944Z,62.60
2018-12-08T23:57:27.786Z,61.55
2018-12-08T23:59:56.666Z,62.01
